Time;durP1;ratioP1;P1;durP2;ratioP2;P2;SDS_P1;SDS_P2;PMS_P1;PMS_P2;Temp;Humidity;BMP_temperature;BMP_pressure;BME280_temperature;BME280_humidity;BME280_pressure;Samples;Min_cycle;Max_cycle;Signal;HPM_P1;HPM_P2
2021/10/04 10:39:56;;;;;;;8.45;1.42;;;14.80;99.90;;;;;;12060438;27;20421;-53
2021/10/04 10:45:46;;;;;;;8.23;0.98;;;16.60;99.90;;;;;;12026684;27;20048;-55
2021/10/04 10:51:33;;;;;;;10.50;1.30;;;16.90;99.90;;;;;;12023127;28;20036;-52
2021/10/04 10:57:23;;;;;;;8.02;1.13;;;17.20;99.90;;;;;;12025201;28;20052;-48
2021/10/04 11:03:13;;;;;;;18.75;1.83;;;17.00;99.90;;;;;;12021436;28;20056;-53
2021/10/04 11:09:00;;;;;;;7.30;1.20;;;17.20;99.90;;;;;;12020277;28;20048;-50
2021/10/04 11:14:58;;;;;;;10.95;1.27;;;17.40;99.90;;;;;;12045616;27;20081;-48
2021/10/04 11:20:45;;;;;;;11.02;1.35;;;17.60;99.90;;;;;;12067007;27;20052;-52
2021/10/04 11:26:35;;;;;;;11.82;1.58;;;17.60;99.90;;;;;;12070885;27;20036;-52
2021/10/04 11:32:23;;;;;;;10.18;1.30;;;17.90;99.90;;;;;;12042909;28;20048;-54
2021/10/04 11:38:10;;;;;;;8.90;1.27;;;18.20;99.90;;;;;;12002168;27;20049;-50
2021/10/04 11:43:59;;;;;;;9.60;1.20;;;18.10;99.90;;;;;;12025031;27;20048;-48
2021/10/04 11:49:50;;;;;;;8.38;1.45;;;17.90;99.90;;;;;;12012998;27;20059;-49
2021/10/04 11:55:37;;;;;;;7.70;1.70;;;17.40;99.90;;;;;;11981548;27;20087;-53
2021/10/04 12:01:31;;;;;;;10.10;1.55;;;17.30;99.90;;;;;;12010194;28;20056;-50
2021/10/04 12:07:21;;;;;;;5.03;1.00;;;17.10;99.90;;;;;;11978985;28;20045;-50
2021/10/04 12:13:10;;;;;;;5.85;1.00;;;17.40;99.90;;;;;;11979577;28;20049;-49
2021/10/04 12:19:00;;;;;;;10.73;1.20;;;17.70;99.90;;;;;;11983953;28;20101;-52
2021/10/04 12:24:48;;;;;;;6.93;1.17;;;18.40;99.90;;;;;;11987422;28;20132;-50
2021/10/04 12:44:14;;;;;;;9.02;1.23;;;18.60;99.90;;;;;;12060502;28;20485;-51
2021/10/04 12:50:01;;;;;;;6.82;1.38;;;18.70;99.90;;;;;;12052435;28;20131;-50
2021/10/04 12:55:56;;;;;;;9.23;1.83;;;18.90;99.90;;;;;;11990421;28;20053;-49
2021/10/04 13:01:51;;;;;;;6.10;0.95;;;18.80;99.90;;;;;;11989996;28;20383;-47
2021/10/04 13:07:39;;;;;;;10.27;2.20;;;18.70;99.90;;;;;;12058445;28;20159;-49
2021/10/04 13:13:25;;;;;;;9.95;1.00;;;18.90;99.90;;;;;;12014747;28;20531;-49
2021/10/04 13:19:16;;;;;;;6.80;1.40;;;19.50;99.90;;;;;;12047083;28;20044;-53
2021/10/04 13:25:03;;;;;;;11.07;1.30;;;19.40;99.90;;;;;;12063541;28;20048;-48
2021/10/04 13:30:50;;;;;;;8.15;1.17;;;19.30;99.90;;;;;;12031006;28;20047;-49
2021/10/04 13:36:39;;;;;;;4.68;0.90;;;19.40;99.90;;;;;;12021785;28;20117;-52
2021/10/04 13:42:26;;;;;;;6.25;1.10;;;19.00;99.90;;;;;;12022783;28;20037;-53
2021/10/04 13:48:13;;;;;;;13.25;1.38;;;19.30;99.90;;;;;;12032960;28;20495;-48
2021/10/04 13:54:01;;;;;;;5.65;1.20;;;19.30;99.90;;;;;;12040747;28;20045;-50
2021/10/04 13:59:48;;;;;;;8.32;1.15;;;19.10;99.90;;;;;;12040993;28;20060;-49
2021/10/04 14:05:35;;;;;;;9.15;1.63;;;19.10;99.90;;;;;;12039359;28;20083;-53
2021/10/04 14:11:24;;;;;;;6.43;1.20;;;19.60;99.90;;;;;;12018208;28;20040;-51
2021/10/04 14:17:11;;;;;;;24.05;12.05;;;20.10;99.90;;;;;;12061951;28;20506;-51
2021/10/04 14:22:59;;;;;;;5.80;1.30;;;20.10;99.90;;;;;;12034694;28;20045;-50
2021/10/04 14:28:47;;;;;;;5.65;1.58;;;20.10;99.90;;;;;;12018616;27;20056;-50
2021/10/04 14:34:35;;;;;;;6.60;1.10;;;20.50;99.90;;;;;;12021135;28;20056;-50
2021/10/04 14:40:28;;;;;;;5.47;0.95;;;20.10;99.90;;;;;;12021614;27;20055;-47
2021/10/04 14:46:17;;;;;;;8.50;1.20;;;19.80;99.90;;;;;;11950135;23;20124;-79
2021/10/04 14:52:04;;;;;;;5.93;1.25;;;19.40;99.90;;;;;;11914051;28;20057;-80
2021/10/04 14:57:51;;;;;;;6.00;1.45;;;18.90;99.90;;;;;;11933948;28;20049;-81
2021/10/04 15:03:40;;;;;;;9.57;1.65;;;19.00;99.90;;;;;;11941460;28;20414;-81
2021/10/04 15:09:27;;;;;;;7.00;1.15;;;19.20;99.90;;;;;;11941965;28;20422;-81
2021/10/04 15:15:14;;;;;;;5.60;1.35;;;19.00;99.90;;;;;;11939619;28;20065;-81
2021/10/04 15:21:02;;;;;;;8.50;0.82;;;19.50;99.90;;;;;;11900459;28;20427;-82
2021/10/04 15:26:49;;;;;;;3.92;1.02;;;19.40;99.90;;;;;;11929097;28;20042;-81
2021/10/04 15:32:36;;;;;;;5.72;1.30;;;19.20;99.90;;;;;;11945435;28;20057;-79
2021/10/04 15:38:25;;;;;;;4.22;1.02;;;19.40;99.90;;;;;;11920186;28;20575;-82
2021/10/04 15:44:12;;;;;;;12.65;1.20;;;19.80;99.90;;;;;;11949674;28;20050;-81
2021/10/04 15:49:59;;;;;;;8.50;1.27;;;19.90;99.90;;;;;;11977289;28;20064;-80
2021/10/04 15:55:48;;;;;;;9.43;1.20;;;20.00;99.90;;;;;;11938876;28;20506;-80
2021/10/04 16:01:35;;;;;;;4.75;0.93;;;20.10;99.90;;;;;;11943791;28;20415;-80
2021/10/04 16:07:27;;;;;;;6.90;1.10;;;20.20;99.90;;;;;;11943297;28;20145;-80
2021/10/04 16:13:15;;;;;;;6.32;1.08;;;19.80;99.90;;;;;;11947978;28;21231;-80
2021/10/04 16:19:04;;;;;;;6.38;1.42;;;19.70;99.90;;;;;;11945560;28;20061;-79
2021/10/04 16:24:53;;;;;;;6.55;1.17;;;19.40;99.90;;;;;;11939398;28;20050;-80
2021/10/04 16:30:42;;;;;;;6.55;1.10;;;19.20;99.90;;;;;;11932318;28;20053;-81
2021/10/04 16:36:30;;;;;;;8.88;1.23;;;19.00;99.90;;;;;;11946821;28;20079;-80
2021/10/04 16:42:17;;;;;;;14.30;1.65;;;18.90;99.90;;;;;;11943956;28;20117;-80
2021/10/04 16:48:06;;;;;;;8.07;1.75;;;18.80;99.90;;;;;;11943364;28;20115;-81
2021/10/04 16:53:53;;;;;;;39.40;20.27;;;18.70;99.90;;;;;;11947837;28;20046;-80
2021/10/04 16:59:40;;;;;;;4.13;1.73;;;18.60;99.90;;;;;;11854235;28;20075;-82
2021/10/04 17:05:36;;;;;;;9.57;1.45;;;18.40;99.90;;;;;;11920864;28;20050;-81
2021/10/04 17:11:23;;;;;;;4.90;1.55;;;18.30;99.90;;;;;;11913635;28;20133;-82
2021/10/04 17:17:10;;;;;;;8.27;1.92;;;18.10;99.90;;;;;;11916630;28;20084;-82
2021/10/04 17:22:58;;;;;;;7.68;1.40;;;17.90;99.90;;;;;;11917896;28;21408;-82
2021/10/04 17:28:47;;;;;;;5.65;2.15;;;17.80;99.90;;;;;;11894032;28;20964;-84
2021/10/04 17:40:37;;;;;;;9.23;1.60;;;17.40;99.90;;;;;;11955357;28;20057;-84
2021/10/04 17:46:24;;;;;;;4.70;1.42;;;17.30;99.90;;;;;;11949042;28;20061;-83
2021/10/04 17:52:11;;;;;;;4.82;1.30;;;17.20;99.90;;;;;;11945318;28;20045;-84
2021/10/04 17:58:00;;;;;;;8.45;1.98;;;17.00;99.90;;;;;;11944655;28;20072;-83
2021/10/04 18:03:47;;;;;;;4.82;1.58;;;17.00;99.90;;;;;;11954894;28;20065;-84
2021/10/04 18:09:34;;;;;;;15.68;2.20;;;17.00;99.90;;;;;;11952109;28;20045;-83
2021/10/04 18:15:23;;;;;;;7.93;1.83;;;17.00;99.90;;;;;;11954652;28;20110;-83
2021/10/04 18:21:10;;;;;;;11.63;2.17;;;17.00;99.90;;;;;;11951100;28;20051;-82
2021/10/04 18:26:58;;;;;;;10.30;1.88;;;17.00;99.90;;;;;;11943602;28;26309;-83
2021/10/04 18:32:51;;;;;;;11.57;2.10;;;16.90;99.90;;;;;;11944974;28;20853;-83
2021/10/04 18:38:38;;;;;;;9.57;2.43;;;16.80;99.90;;;;;;11942649;28;20068;-83
2021/10/04 18:44:24;;;;;;;8.40;2.58;;;16.80;99.90;;;;;;11946896;28;20095;-83
2021/10/04 18:50:16;;;;;;;7.97;2.42;;;16.80;99.90;;;;;;11952603;28;20045;-83
2021/10/04 18:56:03;;;;;;;11.95;2.40;;;16.80;99.90;;;;;;11953995;28;20050;-82
2021/10/04 19:01:50;;;;;;;10.02;2.53;;;16.90;99.90;;;;;;11929168;28;20183;-84
2021/10/04 19:07:39;;;;;;;11.02;2.60;;;17.00;99.90;;;;;;11912324;28;20053;-82
2021/10/04 19:13:26;;;;;;;5.88;2.20;;;17.00;99.90;;;;;;11920777;28;20506;-84
2021/10/04 19:19:14;;;;;;;10.65;2.95;;;17.00;99.90;;;;;;11872752;28;21497;-83
2021/10/04 19:25:03;;;;;;;8.07;2.70;;;17.10;99.90;;;;;;11901766;28;20071;-83
2021/10/04 19:30:50;;;;;;;8.18;2.83;;;17.10;99.90;;;;;;11923048;28;20123;-81
2021/10/04 19:36:37;;;;;;;8.15;2.83;;;17.20;99.90;;;;;;11897859;28;21032;-81
